createdAt,value
2022-12-20T00:01:29.672Z,1.10
2022-12-20T00:04:00.187Z,1.00
2022-12-20T00:06:29.591Z,1.20
2022-12-20T00:08:57.889Z,1.25
2022-12-20T00:11:24.961Z,0.88
2022-12-20T00:13:51.771Z,1.02
2022-12-20T00:16:20.612Z,1.10
2022-12-20T00:18:50.768Z,1.00
2022-12-20T00:21:19.090Z,1.23
2022-12-20T00:23:46.194Z,1.10
2022-12-20T00:26:14.880Z,1.27
2022-12-20T00:28:42.983Z,0.93
2022-12-20T00:31:11.948Z,0.90
2022-12-20T00:33:39.896Z,0.88
2022-12-20T00:36:08.338Z,0.85
2022-12-20T00:38:36.876Z,1.00
2022-12-20T00:41:05.859Z,0.93
2022-12-20T00:43:33.534Z,1.00
2022-12-20T00:46:01.264Z,0.90
2022-12-20T00:48:29.801Z,1.00
2022-12-20T00:50:58.869Z,0.90
2022-12-20T00:53:26.686Z,1.23
2022-12-20T00:55:55.240Z,1.25
2022-12-20T00:58:22.592Z,1.00
2022-12-20T01:00:55.824Z,0.90
2022-12-20T01:03:23.890Z,1.10
2022-12-20T01:05:52.915Z,0.68
2022-12-20T01:08:20.153Z,0.98
2022-12-20T01:10:47.573Z,1.08
2022-12-20T01:13:15.749Z,0.90
2022-12-20T01:15:42.444Z,0.63
2022-12-20T01:18:09.575Z,1.00
2022-12-20T01:20:39.322Z,1.23
2022-12-20T01:23:06.090Z,1.10
2022-12-20T01:25:32.918Z,1.00
2022-12-20T01:27:59.658Z,0.80
2022-12-20T01:30:27.787Z,1.10
2022-12-20T01:32:54.527Z,0.82
2022-12-20T01:35:21.259Z,1.00
2022-12-20T01:37:48.497Z,0.93
2022-12-20T01:40:15.779Z,0.77
2022-12-20T01:42:42.397Z,0.85
2022-12-20T01:45:27.355Z,0.85
2022-12-20T01:47:56.272Z,0.90
2022-12-20T01:50:24.091Z,1.13
2022-12-20T01:52:52.254Z,0.80
2022-12-20T01:55:22.912Z,1.20
2022-12-20T01:57:53.714Z,1.05
2022-12-20T02:00:20.715Z,0.95
2022-12-20T02:02:49.673Z,0.90
2022-12-20T02:05:21.141Z,0.98
2022-12-20T02:07:52.583Z,0.77
2022-12-20T02:10:24.185Z,0.90
2022-12-20T02:12:59.392Z,0.93
2022-12-20T02:15:39.269Z,1.00
2022-12-20T02:18:20.763Z,0.85
2022-12-20T02:21:02.355Z,0.93
2022-12-20T02:23:46.171Z,0.95
2022-12-20T02:26:38.201Z,0.82
2022-12-20T02:29:19.821Z,1.05
2022-12-20T02:31:55.188Z,1.10
2022-12-20T02:34:25.105Z,0.80
2022-12-20T02:36:52.190Z,0.80
2022-12-20T02:39:19.371Z,1.00
2022-12-20T02:41:51.706Z,0.90
2022-12-20T02:44:39.661Z,1.02
2022-12-20T02:47:12.380Z,1.17
2022-12-20T02:49:43.458Z,1.00
2022-12-20T02:52:13.857Z,1.40
2022-12-20T02:54:40.860Z,0.90
2022-12-20T02:57:14.172Z,1.30
2022-12-20T02:59:48.542Z,1.10
2022-12-20T03:02:17.703Z,1.00
2022-12-20T03:04:45.691Z,1.00
2022-12-20T03:07:15.029Z,1.17
2022-12-20T03:09:44.838Z,1.17
2022-12-20T03:12:13.217Z,1.00
2022-12-20T03:14:40.327Z,1.15
2022-12-20T03:17:07.970Z,1.35
2022-12-20T03:19:36.078Z,1.05
2022-12-20T03:22:02.846Z,1.20
2022-12-20T03:24:29.694Z,1.02
2022-12-20T03:26:56.368Z,1.02
2022-12-20T03:29:23.082Z,1.00
2022-12-20T03:31:49.727Z,0.95
2022-12-20T03:34:16.479Z,1.02
2022-12-20T03:36:44.581Z,1.00
2022-12-20T03:39:11.262Z,1.08
2022-12-20T03:41:38.221Z,0.88
2022-12-20T03:44:05.131Z,1.08
2022-12-20T03:46:31.995Z,0.98
2022-12-20T03:48:59.123Z,1.00
2022-12-20T03:51:25.783Z,1.33
2022-12-20T03:53:53.952Z,1.02
2022-12-20T03:56:20.585Z,1.02
2022-12-20T03:58:47.284Z,0.93
2022-12-20T04:01:51.164Z,1.27
2022-12-20T04:04:17.989Z,1.45
2022-12-20T04:06:44.696Z,1.20
2022-12-20T04:09:12.804Z,1.20
2022-12-20T04:11:39.486Z,0.90
2022-12-20T04:14:06.290Z,0.90
2022-12-20T04:16:33.461Z,1.25
2022-12-20T04:19:00.178Z,0.93
2022-12-20T04:21:28.851Z,1.00
2022-12-20T04:23:56.332Z,1.30
2022-12-20T04:26:24.916Z,1.05
2022-12-20T04:28:51.945Z,1.00
2022-12-20T04:31:23.749Z,1.10
2022-12-20T04:33:51.188Z,1.50
2022-12-20T04:36:18.060Z,0.95
2022-12-20T04:38:44.796Z,1.15
2022-12-20T04:41:22.663Z,1.10
2022-12-20T04:43:52.015Z,0.73
2022-12-20T04:46:19.488Z,1.33
2022-12-20T04:48:56.977Z,0.95
2022-12-20T04:51:25.050Z,1.00
2022-12-20T04:53:51.893Z,1.00
2022-12-20T04:56:20.374Z,1.17
2022-12-20T04:58:49.387Z,1.30
2022-12-20T05:01:18.791Z,1.40
2022-12-20T05:03:46.016Z,1.00
2022-12-20T05:06:13.456Z,1.08
2022-12-20T05:08:40.459Z,0.90
2022-12-20T05:11:07.684Z,0.88
2022-12-20T05:13:35.276Z,1.10
2022-12-20T05:16:02.773Z,1.05
2022-12-20T05:18:31.069Z,1.00
2022-12-20T05:21:18.799Z,1.02
2022-12-20T05:24:04.533Z,1.00
2022-12-20T05:26:34.570Z,1.02
2022-12-20T05:29:03.402Z,0.90
2022-12-20T05:31:30.156Z,0.93
2022-12-20T05:33:58.293Z,0.98
2022-12-20T05:36:25.004Z,1.00
2022-12-20T05:38:51.723Z,1.27
2022-12-20T05:41:18.467Z,1.05
2022-12-20T05:43:45.194Z,1.10
2022-12-20T05:46:12.146Z,0.82
2022-12-20T05:48:38.929Z,1.00
2022-12-20T05:51:07.186Z,1.00
2022-12-20T05:53:33.947Z,1.00
2022-12-20T05:56:01.608Z,1.02
2022-12-20T05:58:28.864Z,0.80
2022-12-20T06:00:59.897Z,1.23
2022-12-20T06:03:26.897Z,0.90
2022-12-20T06:05:53.781Z,0.95
2022-12-20T06:08:23.560Z,0.68
2022-12-20T06:10:50.559Z,1.00
2022-12-20T06:13:18.502Z,1.05
2022-12-20T06:15:45.377Z,0.98
2022-12-20T06:18:12.162Z,1.13
2022-12-20T06:20:39.350Z,1.00
2022-12-20T06:23:07.353Z,0.82
2022-12-20T06:25:39.724Z,1.00
2022-12-20T06:28:08.043Z,1.25
2022-12-20T06:30:35.135Z,0.93
2022-12-20T06:33:04.834Z,1.00
2022-12-20T06:35:31.729Z,0.90
2022-12-20T06:37:58.688Z,0.95
2022-12-20T06:40:25.600Z,0.98
2022-12-20T06:42:53.801Z,1.02
2022-12-20T06:45:20.561Z,0.80
2022-12-20T06:47:47.442Z,0.90
2022-12-20T06:50:14.486Z,1.10
2022-12-20T06:52:41.221Z,0.90
2022-12-20T06:55:08.680Z,0.75
2022-12-20T06:57:35.440Z,0.73
2022-12-20T07:00:05.037Z,0.80
2022-12-20T07:02:31.893Z,1.00
2022-12-20T07:04:58.813Z,0.93
2022-12-20T07:07:26.836Z,0.90
2022-12-20T07:09:53.675Z,1.13
2022-12-20T07:12:20.535Z,1.10
2022-12-20T07:14:47.326Z,0.95
2022-12-20T07:17:15.514Z,0.73
2022-12-20T07:19:48.804Z,0.90
2022-12-20T07:22:18.063Z,1.00
2022-12-20T07:24:45.727Z,0.90
2022-12-20T07:27:27.925Z,0.82
2022-12-20T07:29:54.659Z,1.13
2022-12-20T07:32:22.715Z,1.05
2022-12-20T07:34:49.453Z,1.02
2022-12-20T07:37:16.235Z,1.20
2022-12-20T07:39:43.085Z,1.15
2022-12-20T07:42:11.640Z,1.00
2022-12-20T07:44:38.605Z,0.85
2022-12-20T07:47:05.422Z,1.05
2022-12-20T07:49:33.483Z,0.95
2022-12-20T07:52:02.566Z,0.80
2022-12-20T07:54:33.353Z,0.80
2022-12-20T07:57:04.136Z,0.98
2022-12-20T07:59:37.106Z,0.70
2022-12-20T08:02:05.629Z,0.82
2022-12-20T08:04:34.347Z,0.90
2022-12-20T08:07:03.886Z,0.90
2022-12-20T08:09:35.349Z,0.70
2022-12-20T08:12:02.396Z,1.00
2022-12-20T08:14:31.808Z,0.80
2022-12-20T08:16:58.586Z,0.82
2022-12-20T08:19:31.788Z,1.23
2022-12-20T08:22:00.363Z,1.10
2022-12-20T08:24:27.060Z,1.00
2022-12-20T08:26:54.603Z,0.90
2022-12-20T08:29:21.729Z,0.90
2022-12-20T08:31:52.349Z,1.15
2022-12-20T08:34:21.880Z,1.17
2022-12-20T08:36:48.577Z,1.30
2022-12-20T08:39:17.045Z,0.90
2022-12-20T08:41:44.109Z,0.82
2022-12-20T08:44:10.857Z,1.00
2022-12-20T08:46:38.064Z,1.00
2022-12-20T08:49:09.692Z,1.00
2022-12-20T08:51:36.632Z,0.88
2022-12-20T08:54:03.483Z,0.80
2022-12-20T08:56:31.513Z,1.02
2022-12-20T08:58:58.426Z,0.90
2022-12-20T09:01:27.154Z,1.10
2022-12-20T09:03:54.224Z,0.93
2022-12-20T09:06:27.701Z,0.90
2022-12-20T09:08:55.693Z,1.00
2022-12-20T09:11:24.929Z,1.10
2022-12-20T09:13:59.721Z,0.70
2022-12-20T09:16:28.658Z,1.08
2022-12-20T09:19:04.270Z,0.90
2022-12-20T09:21:32.727Z,1.17
2022-12-20T09:23:59.579Z,1.20
2022-12-20T09:26:26.745Z,1.00
2022-12-20T09:28:55.175Z,1.10
2022-12-20T09:31:23.517Z,0.85
2022-12-20T09:33:53.261Z,1.15
2022-12-20T09:36:21.866Z,1.00
2022-12-20T09:38:49.255Z,1.00
2022-12-20T09:41:25.150Z,0.75
2022-12-20T09:43:52.449Z,1.00
2022-12-20T09:46:21.190Z,0.75
2022-12-20T09:48:49.841Z,1.23
2022-12-20T09:51:25.642Z,0.88
2022-12-20T09:54:04.861Z,0.98
2022-12-20T09:56:36.668Z,0.70
2022-12-20T09:59:06.163Z,0.80
2022-12-20T10:01:40.089Z,1.00
2022-12-20T10:04:18.503Z,0.90
2022-12-20T10:06:54.134Z,0.80
2022-12-20T10:09:36.759Z,0.60
2022-12-20T10:12:15.608Z,0.80
2022-12-20T10:14:58.580Z,0.80
2022-12-20T10:17:40.356Z,0.70
2022-12-20T10:20:31.722Z,0.70
2022-12-20T10:23:04.201Z,1.00
2022-12-20T10:25:32.374Z,1.10
2022-12-20T10:28:02.887Z,1.25
2022-12-20T10:30:37.694Z,0.85
2022-12-20T10:33:05.847Z,0.90
2022-12-20T10:35:37.713Z,1.05
2022-12-20T10:38:08.307Z,0.88
2022-12-20T10:41:10.171Z,1.00
2022-12-20T10:43:25.151Z,0.98
2022-12-20T10:45:58.074Z,1.05
2022-12-20T10:48:33.538Z,0.90
2022-12-20T10:51:03.364Z,1.20
2022-12-20T10:53:30.624Z,1.10
2022-12-20T10:56:17.792Z,0.98
2022-12-20T10:58:52.984Z,1.23
2022-12-20T11:01:21.374Z,1.33
2022-12-20T11:03:56.743Z,1.48
2022-12-20T11:06:26.177Z,1.08
2022-12-20T11:08:58.870Z,1.00
2022-12-20T11:11:27.481Z,1.17
2022-12-20T11:13:54.267Z,1.52
2022-12-20T11:16:28.842Z,1.08
2022-12-20T11:19:10.821Z,1.48
2022-12-20T11:21:46.273Z,1.27
2022-12-20T11:24:22.114Z,1.50
2022-12-20T11:27:00.701Z,0.90
2022-12-20T11:29:48.164Z,0.90
2022-12-20T11:32:26.931Z,1.23
2022-12-20T11:35:03.524Z,1.02
2022-12-20T11:37:37.558Z,1.13
2022-12-20T11:40:20.670Z,0.90
2022-12-20T11:42:59.549Z,1.00
2022-12-20T11:45:35.315Z,1.10
2022-12-20T11:48:42.500Z,1.23
2022-12-20T11:51:26.024Z,1.17
2022-12-20T11:54:03.311Z,1.13
2022-12-20T11:56:38.654Z,1.02
2022-12-20T11:59:18.767Z,1.20
2022-12-20T12:01:51.877Z,1.20
2022-12-20T12:04:22.883Z,1.00
2022-12-20T12:06:57.200Z,1.00
2022-12-20T12:09:27.978Z,0.90
2022-12-20T12:12:07.176Z,1.20
2022-12-20T12:14:44.562Z,1.30
2022-12-20T12:17:24.926Z,1.00
2022-12-20T12:19:57.140Z,1.00
2022-12-20T12:22:32.743Z,1.10
2022-12-20T12:25:09.321Z,1.15
2022-12-20T12:27:36.184Z,1.23
2022-12-20T12:30:03.659Z,1.30
2022-12-20T12:32:38.151Z,1.10
2022-12-20T12:35:36.828Z,1.60
2022-12-20T12:38:25.692Z,1.20
2022-12-20T12:41:28.672Z,1.45
2022-12-20T12:43:59.128Z,1.17
2022-12-20T12:46:30.613Z,1.00
2022-12-20T12:49:02.736Z,1.30
2022-12-20T12:51:34.869Z,1.30
2022-12-20T12:54:22.201Z,1.15
2022-12-20T12:56:49.902Z,1.73
2022-12-20T12:59:51.435Z,1.00
2022-12-20T13:02:34.715Z,1.30
2022-12-20T13:05:35.249Z,2.17
2022-12-20T13:08:02.524Z,1.20
2022-12-20T13:11:01.021Z,1.08
2022-12-20T13:13:27.915Z,1.35
2022-12-20T13:16:12.840Z,1.40
2022-12-20T13:19:00.193Z,1.23
2022-12-20T13:21:37.447Z,1.40
2022-12-20T13:24:53.529Z,1.65
2022-12-20T13:27:36.197Z,1.50
2022-12-20T13:30:25.599Z,1.38
2022-12-20T13:32:58.871Z,1.27
2022-12-20T13:35:41.306Z,1.40
2022-12-20T13:38:47.320Z,1.48
2022-12-20T13:41:29.564Z,1.30
2022-12-20T13:44:19.000Z,1.52
2022-12-20T13:46:50.545Z,1.60
2022-12-20T13:49:23.911Z,1.20
2022-12-20T13:52:09.418Z,2.30
2022-12-20T13:54:40.840Z,1.50
2022-12-20T13:57:08.344Z,1.50
2022-12-20T13:59:36.548Z,1.58
2022-12-20T14:02:11.513Z,1.58
2022-12-20T14:04:43.079Z,1.13
2022-12-20T14:09:44.331Z,1.33
2022-12-20T14:12:18.031Z,1.33
2022-12-20T14:14:52.271Z,1.50
2022-12-20T14:17:25.179Z,1.35
2022-12-20T14:20:16.542Z,1.30
2022-12-20T14:22:52.174Z,1.42
2022-12-20T14:25:29.404Z,1.83
2022-12-20T14:27:56.880Z,1.83
2022-12-20T14:30:45.756Z,1.42
2022-12-20T14:33:34.269Z,1.77
2022-12-20T14:36:09.871Z,1.52
2022-12-20T14:38:37.346Z,1.67
2022-12-20T14:41:04.341Z,1.70
2022-12-20T14:43:35.648Z,1.58
2022-12-20T14:46:17.875Z,1.60
2022-12-20T14:48:45.073Z,1.70
2022-12-20T14:51:13.620Z,1.77
2022-12-20T14:53:41.262Z,1.70
2022-12-20T14:56:19.015Z,1.70
2022-12-20T14:58:46.094Z,2.20
2022-12-20T15:01:23.752Z,2.25
2022-12-20T15:03:53.720Z,1.80
2022-12-20T15:06:35.619Z,1.88
2022-12-20T15:09:05.565Z,1.67
2022-12-20T15:11:38.016Z,1.60
2022-12-20T15:14:21.076Z,1.52
2022-12-20T15:16:50.270Z,1.30
2022-12-20T15:19:19.796Z,1.42
2022-12-20T15:21:47.071Z,1.58
2022-12-20T15:24:18.718Z,1.65
2022-12-20T15:29:16.785Z,1.60
2022-12-20T15:31:48.029Z,1.35
2022-12-20T15:34:23.268Z,1.63
2022-12-20T15:36:51.979Z,1.50
2022-12-20T15:39:21.583Z,1.42
2022-12-20T15:41:49.966Z,1.60
2022-12-20T15:44:21.222Z,1.75
2022-12-20T15:46:48.426Z,1.60
2022-12-20T15:49:18.255Z,1.90
2022-12-20T15:51:51.235Z,1.52
2022-12-20T15:54:24.285Z,1.65
2022-12-20T15:56:51.336Z,1.85
2022-12-20T15:59:57.579Z,2.05
2022-12-20T16:02:17.351Z,2.08
2022-12-20T16:04:45.524Z,1.65
2022-12-20T16:07:13.149Z,1.83
2022-12-20T16:09:39.867Z,2.47
2022-12-20T16:12:13.412Z,1.92
2022-12-20T16:14:40.223Z,2.25
2022-12-20T16:17:08.185Z,2.20
2022-12-20T16:19:34.937Z,2.47
2022-12-20T16:22:03.796Z,2.75
2022-12-20T16:24:30.497Z,3.00
2022-12-20T16:26:57.150Z,2.50
2022-12-20T16:29:23.915Z,2.28
2022-12-20T16:31:53.271Z,2.47
2022-12-20T16:34:20.639Z,2.25
2022-12-20T16:36:47.619Z,2.35
2022-12-20T16:39:15.741Z,2.38
2022-12-20T16:41:44.270Z,2.28
2022-12-20T16:44:13.824Z,2.53
2022-12-20T16:46:40.827Z,2.53
2022-12-20T16:49:17.800Z,2.03
2022-12-20T16:51:48.279Z,2.72
2022-12-20T16:54:20.580Z,2.63
2022-12-20T16:56:49.361Z,2.20
2022-12-20T16:59:20.115Z,2.42
2022-12-20T17:04:17.720Z,2.38
2022-12-20T17:06:45.176Z,2.55
2022-12-20T17:09:12.113Z,3.03
2022-12-20T17:11:40.270Z,2.85
2022-12-20T17:14:12.329Z,2.65
2022-12-20T17:16:40.178Z,2.63
2022-12-20T17:19:07.121Z,3.08
2022-12-20T17:24:22.707Z,3.17
2022-12-20T17:26:50.849Z,3.20
2022-12-20T17:29:18.473Z,4.22
2022-12-20T17:31:46.654Z,3.97
2022-12-20T17:34:17.239Z,3.13
2022-12-20T17:36:44.217Z,3.22
2022-12-20T17:39:13.795Z,2.58
2022-12-20T17:41:42.657Z,2.78
2022-12-20T17:44:17.394Z,3.03
2022-12-20T17:46:44.528Z,2.72
2022-12-20T17:49:11.301Z,2.72
2022-12-20T17:51:38.115Z,2.50
2022-12-20T17:54:05.274Z,2.35
2022-12-20T17:56:34.152Z,2.92
2022-12-20T17:59:02.398Z,2.70
2022-12-20T18:01:32.077Z,2.88
2022-12-20T18:04:04.963Z,2.63
2022-12-20T18:06:33.512Z,3.10
2022-12-20T18:09:00.927Z,3.10
2022-12-20T18:11:29.024Z,3.30
2022-12-20T18:13:59.107Z,3.17
2022-12-20T18:16:27.920Z,3.00
2022-12-20T18:18:57.122Z,3.10
2022-12-20T18:21:25.685Z,3.40
2022-12-20T18:23:55.213Z,3.08
2022-12-20T18:26:23.866Z,3.25
2022-12-20T18:28:53.865Z,3.33
2022-12-20T18:31:23.048Z,3.03
2022-12-20T18:33:53.987Z,3.25
2022-12-20T18:36:25.451Z,3.20
2022-12-20T18:38:52.508Z,3.45
2022-12-20T18:41:20.859Z,3.10
2022-12-20T18:43:47.767Z,3.33
2022-12-20T18:46:18.270Z,3.80
2022-12-20T18:48:46.244Z,3.60
2022-12-20T18:51:14.781Z,3.13
2022-12-20T18:53:44.889Z,2.85
2022-12-20T18:56:16.165Z,3.35
2022-12-20T18:58:44.485Z,2.65
2022-12-20T19:01:13.365Z,3.25
2022-12-20T19:03:40.428Z,3.47
2022-12-20T19:06:08.408Z,3.00
2022-12-20T19:08:35.188Z,3.30
2022-12-20T19:11:06.374Z,3.67
2022-12-20T19:13:33.465Z,3.33
2022-12-20T19:16:05.224Z,3.25
2022-12-20T19:18:32.168Z,3.53
2022-12-20T19:21:06.229Z,3.78
2022-12-20T19:23:33.682Z,3.40
2022-12-20T19:26:06.520Z,3.33
2022-12-20T19:28:34.632Z,3.35
2022-12-20T19:31:11.999Z,3.20
2022-12-20T19:33:44.256Z,3.22
2022-12-20T19:36:12.902Z,2.95
2022-12-20T19:38:43.538Z,3.25
2022-12-20T19:41:12.369Z,3.10
2022-12-20T19:43:39.826Z,3.35
2022-12-20T19:46:08.033Z,3.13
2022-12-20T19:48:37.975Z,3.63
2022-12-20T19:51:09.131Z,3.17
2022-12-20T19:53:36.187Z,3.40
2022-12-20T19:56:10.928Z,3.65
2022-12-20T19:58:40.267Z,3.33
2022-12-20T20:01:08.425Z,3.58
2022-12-20T20:03:36.242Z,3.50
2022-12-20T20:06:04.972Z,3.30
2022-12-20T20:08:31.929Z,3.58
2022-12-20T20:11:05.303Z,3.63
2022-12-20T20:13:35.914Z,3.58
2022-12-20T20:16:05.176Z,3.80
2022-12-20T20:18:33.852Z,4.10
2022-12-20T20:21:08.675Z,3.78
2022-12-20T20:23:37.363Z,3.65
2022-12-20T20:26:08.981Z,3.15
2022-12-20T20:33:40.899Z,3.10
2022-12-20T20:36:08.445Z,3.40
2022-12-20T20:38:35.439Z,3.42
2022-12-20T20:41:02.174Z,3.83
2022-12-20T20:43:29.799Z,3.55
2022-12-20T20:45:57.014Z,3.13
2022-12-20T20:48:25.367Z,3.78
2022-12-20T20:50:52.149Z,3.47
2022-12-20T20:53:19.217Z,3.60
2022-12-20T20:55:46.648Z,3.90
2022-12-20T20:58:13.931Z,4.00
2022-12-20T21:00:40.579Z,3.80
2022-12-20T21:03:09.649Z,3.72
2022-12-20T21:06:32.983Z,3.83
2022-12-20T21:08:24.828Z,3.95
2022-12-20T21:10:51.834Z,3.42
2022-12-20T21:13:18.843Z,3.90
2022-12-20T21:15:46.499Z,3.97
2022-12-20T21:18:13.903Z,3.60
2022-12-20T21:20:42.514Z,4.03
2022-12-20T21:23:11.279Z,3.63
2022-12-20T21:25:38.080Z,4.32
2022-12-20T21:28:05.006Z,4.88
2022-12-20T21:30:31.780Z,4.32
2022-12-20T21:32:58.487Z,4.55
2022-12-20T21:35:25.317Z,3.67
2022-12-20T21:37:53.323Z,3.85
2022-12-20T21:40:21.718Z,4.13
2022-12-20T21:42:48.379Z,3.92
2022-12-20T21:45:15.893Z,3.25
2022-12-20T21:47:42.667Z,3.75
2022-12-20T21:50:10.594Z,4.38
2022-12-20T21:52:40.667Z,4.57
2022-12-20T21:55:09.515Z,4.20
2022-12-20T21:57:36.324Z,3.67
2022-12-20T22:00:04.753Z,4.05
2022-12-20T22:02:31.665Z,4.47
2022-12-20T22:04:58.621Z,4.70
2022-12-20T22:07:25.336Z,4.60
2022-12-20T22:09:52.110Z,4.70
2022-12-20T22:12:20.715Z,4.30
2022-12-20T22:14:47.491Z,4.53
2022-12-20T22:17:14.368Z,4.93
2022-12-20T22:19:41.194Z,4.88
2022-12-20T22:22:07.932Z,4.43
2022-12-20T22:24:37.256Z,4.28
2022-12-20T22:27:11.055Z,4.55
2022-12-20T22:29:39.871Z,4.88
2022-12-20T22:32:06.783Z,5.18
2022-12-20T22:34:33.601Z,5.45
2022-12-20T22:37:00.502Z,4.82
2022-12-20T22:39:27.336Z,5.10
2022-12-20T22:41:54.045Z,5.07
2022-12-20T22:44:20.767Z,6.15
2022-12-20T22:46:48.842Z,6.03
2022-12-20T22:49:17.074Z,6.18
2022-12-20T22:51:46.707Z,5.97
2022-12-20T22:54:18.048Z,6.45
2022-12-20T22:56:44.781Z,5.75
2022-12-20T22:59:11.588Z,5.78
2022-12-20T23:01:38.438Z,6.35
2022-12-20T23:04:08.929Z,6.05
2022-12-20T23:06:35.918Z,6.50
2022-12-20T23:09:03.548Z,6.78
2022-12-20T23:11:49.311Z,6.35
2022-12-20T23:17:04.041Z,6.75
2022-12-20T23:19:52.304Z,6.53
2022-12-20T23:22:38.078Z,6.18
2022-12-20T23:25:06.102Z,6.82
2022-12-20T23:27:33.114Z,6.97
2022-12-20T23:30:04.273Z,7.35
2022-12-20T23:32:31.131Z,7.45
2022-12-20T23:34:59.218Z,7.38
2022-12-20T23:37:38.275Z,7.40
2022-12-20T23:40:06.267Z,7.25
2022-12-20T23:42:33.083Z,7.25
2022-12-20T23:44:59.799Z,7.07
2022-12-20T23:47:26.579Z,7.32
2022-12-20T23:49:53.326Z,7.60
2022-12-20T23:52:21.433Z,7.70
2022-12-20T23:54:48.120Z,8.07
2022-12-20T23:57:14.834Z,7.55
2022-12-20T23:59:41.844Z,6.93
